CDT,Max TemperatureF,Mean TemperatureF,Min TemperatureF,Max Dew PointF,MeanDew PointF,Min DewpointF,Max Humidity, Mean Humidity, Min Humidity, Max Sea Level PressureIn, Mean Sea Level PressureIn, Min Sea Level PressureIn, Max VisibilityMiles, Mean VisibilityMiles, Min VisibilityMiles, Max Wind SpeedMPH, Mean Wind SpeedMPH, Max Gust SpeedMPH,PrecipitationIn, CloudCover, Events, WindDirDegrees
2012-3-1,34,29,21,29,26,19,93,88,79,29.82,29.75,29.66,10,6,0,4,1,,0.00,6,Fog-Snow,265
2012-3-2,37,29,21,30,25,19,100,84,65,29.79,29.64,29.50,10,7,1,7,1,,0.01,8,Snow,170
2012-3-3,30,24,17,24,21,14,88,82,69,29.85,29.60,29.47,10,4,0,9,3,,0.06,8,Fog-Snow,10
2012-3-4,25,17,9,16,12,5,88,75,51,30.10,29.93,29.79,10,8,2,8,1,,0.00,8,Snow,97
2012-3-5,28,13,-2,22,14,-6,92,76,54,30.24,30.10,29.96,10,7,1,14,4,22,0.00,5,Snow,186
2012-3-6,48,36,25,39,26,19,85,67,48,29.92,29.72,29.62,10,10,10,14,9,22,0.00,0,,172
2012-3-7,51,40,28,45,36,21,100,85,63,29.88,29.64,29.52,10,6,0,10,5,17,0.16,7,Fog-Rain-Snow,216
2012-3-8,32,26,19,25,17,5,86,68,47,30.32,30.05,29.90,10,7,0,15,6,28,0.00,5,Fog-Snow,265
2012-3-9,28,18,9,8,2,-4,73,48,25,30.61,30.47,30.27,10,10,10,10,5,18,0.00,2,,184
2012-3-10,55,41,27,31,21,9,72,46,29,30.21,29.97,29.91,10,10,10,13,9,23,0.00,0,,192
2012-3-11,60,46,33,34,29,25,72,45,33,30.02,29.96,29.84,10,10,10,13,5,17,0.00,1,Rain,188
2012-3-12,51,46,42,45,42,27,100,91,41,29.84,29.67,29.60,10,6,1,9,5,16,0.47,8,Rain,182
2012-3-13,57,44,30,41,29,17,93,65,21,30.05,29.94,29.75,10,9,5,7,3,,0.00,0,,198
2012-3-14,69,52,36,47,39,27,89,59,43,29.93,29.83,29.77,10,10,10,9,6,,0.00,0,,172
2012-3-15,64,46,28,34,24,18,85,50,22,30.11,30.05,29.94,10,10,10,10,3,17,0.00,0,,45
2012-3-16,75,52,30,55,41,23,82,65,44,30.04,29.95,29.85,10,10,10,12,4,17,0.00,1,,143
2012-3-17,77,67,57,60,56,52,90,68,48,29.84,29.82,29.78,10,10,7,15,7,26,0.00,2,,181
2012-3-18,78,68,59,56,54,52,83,62,43,29.85,29.80,29.75,10,10,10,14,8,29,0.00,1,,174
2012-3-19,77,67,59,57,56,54,83,67,52,29.81,29.77,29.71,10,10,9,17,8,28,0.00,2,Rain,166
2012-3-20,69,59,52,58,55,50,97,81,60,29.97,29.85,29.73,10,10,8,12,6,23,0.03,6,Rain,184
2012-3-21,64,58,51,57,53,50,97,85,68,30.12,30.01,29.91,10,9,1,8,2,,0.08,7,Rain,199
2012-3-22,60,55,50,57,53,48,100,92,86,30.16,30.10,30.04,10,8,1,9,2,,0.14,8,Rain,78
2012-3-23,64,57,48,56,53,47,94,86,77,30.04,29.96,29.92,10,10,9,7,3,,0.04,8,Rain,66
2012-3-24,69,55,44,52,47,42,100,80,54,30.04,29.96,29.92,10,9,2,8,2,,0.00,7,,1
2012-3-25,54,43,30,45,28,19,83,62,26,30.38,30.19,30.04,10,10,10,9,4,,0.00,3,,34
2012-3-26,45,36,26,26,17,12,69,47,26,30.44,30.32,30.08,10,10,10,15,9,24,0.02,5,Rain,112
2012-3-27,70,54,39,46,33,18,66,54,31,30.04,29.72,29.49,10,10,10,20,15,36,0.01,7,,197
2012-3-28,48,37,28,34,30,25,88,65,52,30.13,29.93,29.70,10,10,10,13,6,24,0.00,6,,290
2012-3-29,50,37,24,34,26,20,92,63,38,30.18,30.09,29.91,10,10,9,13,4,20,0.04,2,Rain,93
2012-3-30,43,38,33,38,34,30,89,84,79,29.93,29.87,29.82,10,9,4,9,5,16,0.14,8,Rain,141
2012-3-31,46,42,37,41,37,34,93,82,71,29.95,29.85,29.73,10,9,4,14,7,18,0.00,8,,165